sensor_id;sensor_type;location;lat;lon;timestamp;pressure;altitude;pressure_sealevel;temperature;humidity
3142;BME280;1581;51.568;6.998;2023-04-06T00:02:03;101110.25;;;3.82;98.88
3142;BME280;1581;51.568;6.998;2023-04-06T00:04:31;101099.03;;;3.80;98.95
3142;BME280;1581;51.568;6.998;2023-04-06T00:07:01;101099.97;;;3.79;99.52
3142;BME280;1581;51.568;6.998;2023-04-06T00:09:30;101099.44;;;3.76;99.49
3142;BME280;1581;51.568;6.998;2023-04-06T00:11:58;101099.69;;;3.73;99.49
3142;BME280;1581;51.568;6.998;2023-04-06T00:14:27;101092.91;;;3.70;99.11
3142;BME280;1581;51.568;6.998;2023-04-06T00:16:56;101094.56;;;3.71;98.56
3142;BME280;1581;51.568;6.998;2023-04-06T00:19:24;101102.75;;;3.68;98.66
3142;BME280;1581;51.568;6.998;2023-04-06T00:21:52;101093.44;;;3.64;99.00
3142;BME280;1581;51.568;6.998;2023-04-06T00:24:20;101093.97;;;3.58;99.83
3142;BME280;1581;51.568;6.998;2023-04-06T00:26:48;101084.16;;;3.60;99.44
3142;BME280;1581;51.568;6.998;2023-04-06T00:29:18;101084.56;;;3.56;99.41
3142;BME280;1581;51.568;6.998;2023-04-06T00:31:47;101080.25;;;3.55;99.71
3142;BME280;1581;51.568;6.998;2023-04-06T00:34:15;101077.19;;;3.50;99.42
3142;BME280;1581;51.568;6.998;2023-04-06T00:36:43;101074.69;;;3.48;99.60
3142;BME280;1581;51.568;6.998;2023-04-06T00:39:11;101069.97;;;3.52;99.07
3142;BME280;1581;51.568;6.998;2023-04-06T00:41:40;101072.19;;;3.56;98.18
3142;BME280;1581;51.568;6.998;2023-04-06T00:44:13;101067.75;;;3.47;99.21
3142;BME280;1581;51.568;6.998;2023-04-06T00:46:41;101075.91;;;3.44;99.46
3142;BME280;1581;51.568;6.998;2023-04-06T00:49:10;101067.75;;;3.38;100.00
3142;BME280;1581;51.568;6.998;2023-04-06T00:51:38;101064.53;;;3.35;100.00
3142;BME280;1581;51.568;6.998;2023-04-06T00:54:06;101062.19;;;3.32;100.00
3142;BME280;1581;51.568;6.998;2023-04-06T00:56:34;101059.25;;;3.25;100.00
3142;BME280;1581;51.568;6.998;2023-04-06T00:59:02;101059.81;;;3.19;100.00
3142;BME280;1581;51.568;6.998;2023-04-06T01:01:30;101052.28;;;3.15;100.00
3142;BME280;1581;51.568;6.998;2023-04-06T01:03:59;101045.63;;;3.11;100.00
3142;BME280;1581;51.568;6.998;2023-04-06T01:06:30;101043.28;;;3.17;100.00
3142;BME280;1581;51.568;6.998;2023-04-06T01:08:58;101045.38;;;3.23;100.00
3142;BME280;1581;51.568;6.998;2023-04-06T01:11:26;101042.91;;;3.22;100.00
3142;BME280;1581;51.568;6.998;2023-04-06T01:13:55;101037.72;;;3.11;100.00
3142;BME280;1581;51.568;6.998;2023-04-06T01:16:22;101032.59;;;3.09;100.00
3142;BME280;1581;51.568;6.998;2023-04-06T01:18:51;101033.84;;;3.05;100.00
3142;BME280;1581;51.568;6.998;2023-04-06T01:21:19;101031.34;;;3.04;100.00
3142;BME280;1581;51.568;6.998;2023-04-06T01:23:48;101026.75;;;3.06;100.00
3142;BME280;1581;51.568;6.998;2023-04-06T01:26:16;101029.53;;;3.04;100.00
3142;BME280;1581;51.568;6.998;2023-04-06T01:28:43;101026.50;;;3.09;100.00
3142;BME280;1581;51.568;6.998;2023-04-06T01:31:11;101026.47;;;2.99;100.00
3142;BME280;1581;51.568;6.998;2023-04-06T01:33:39;101032.97;;;2.95;100.00
3142;BME280;1581;51.568;6.998;2023-04-06T01:36:07;101021.72;;;2.93;100.00
3142;BME280;1581;51.568;6.998;2023-04-06T01:38:35;101021.44;;;2.87;100.00
3142;BME280;1581;51.568;6.998;2023-04-06T01:41:04;101015.75;;;2.91;100.00
3142;BME280;1581;51.568;6.998;2023-04-06T01:43:32;101015.59;;;2.83;100.00
3142;BME280;1581;51.568;6.998;2023-04-06T01:46:00;101018.06;;;2.75;100.00
3142;BME280;1581;51.568;6.998;2023-04-06T01:48:28;101015.44;;;2.75;100.00
3142;BME280;1581;51.568;6.998;2023-04-06T01:50:56;101012.50;;;2.69;100.00
3142;BME280;1581;51.568;6.998;2023-04-06T01:53:24;101013.06;;;2.72;100.00
3142;BME280;1581;51.568;6.998;2023-04-06T01:55:52;101016.78;;;2.70;100.00
3142;BME280;1581;51.568;6.998;2023-04-06T01:58:21;101012.75;;;2.66;100.00
3142;BME280;1581;51.568;6.998;2023-04-06T02:00:49;101016.56;;;2.53;100.00
3142;BME280;1581;51.568;6.998;2023-04-06T02:03:17;101011.31;;;2.53;100.00
3142;BME280;1581;51.568;6.998;2023-04-06T02:05:45;101012.16;;;2.53;100.00
3142;BME280;1581;51.568;6.998;2023-04-06T02:08:13;101015.47;;;2.55;100.00
3142;BME280;1581;51.568;6.998;2023-04-06T02:10:41;101007.72;;;2.53;100.00
3142;BME280;1581;51.568;6.998;2023-04-06T02:13:08;101009.78;;;2.50;100.00
3142;BME280;1581;51.568;6.998;2023-04-06T02:15:38;101008.56;;;2.54;100.00
3142;BME280;1581;51.568;6.998;2023-04-06T02:18:05;101008.25;;;2.48;100.00
3142;BME280;1581;51.568;6.998;2023-04-06T02:20:33;101006.59;;;2.47;100.00
3142;BME280;1581;51.568;6.998;2023-04-06T02:23:01;101005.16;;;2.43;100.00
3142;BME280;1581;51.568;6.998;2023-04-06T02:25:29;101006.13;;;2.42;100.00
3142;BME280;1581;51.568;6.998;2023-04-06T02:27:56;101009.16;;;2.37;100.00
3142;BME280;1581;51.568;6.998;2023-04-06T02:30:24;100999.75;;;2.35;100.00
3142;BME280;1581;51.568;6.998;2023-04-06T02:32:53;101003.91;;;2.37;100.00
3142;BME280;1581;51.568;6.998;2023-04-06T02:35:21;101000.56;;;2.35;100.00
3142;BME280;1581;51.568;6.998;2023-04-06T02:37:49;101003.47;;;2.32;100.00
3142;BME280;1581;51.568;6.998;2023-04-06T02:40:17;100997.41;;;2.41;100.00
3142;BME280;1581;51.568;6.998;2023-04-06T02:42:44;101003.19;;;2.35;100.00
3142;BME280;1581;51.568;6.998;2023-04-06T02:45:12;101001.09;;;2.29;100.00
3142;BME280;1581;51.568;6.998;2023-04-06T02:47:41;100991.84;;;2.35;100.00
3142;BME280;1581;51.568;6.998;2023-04-06T02:50:10;100995.03;;;2.38;100.00
3142;BME280;1581;51.568;6.998;2023-04-06T02:52:38;100997.09;;;2.35;100.00
3142;BME280;1581;51.568;6.998;2023-04-06T02:55:07;100993.06;;;2.31;100.00
3142;BME280;1581;51.568;6.998;2023-04-06T02:57:35;100989.34;;;2.33;100.00
3142;BME280;1581;51.568;6.998;2023-04-06T03:00:04;100993.13;;;2.40;100.00
3142;BME280;1581;51.568;6.998;2023-04-06T03:02:32;100983.50;;;2.30;100.00
3142;BME280;1581;51.568;6.998;2023-04-06T03:05:00;100989.03;;;2.27;100.00
3142;BME280;1581;51.568;6.998;2023-04-06T03:07:30;100985.13;;;2.21;100.00
3142;BME280;1581;51.568;6.998;2023-04-06T03:09:58;100987.31;;;2.16;100.00
3142;BME280;1581;51.568;6.998;2023-04-06T03:12:26;100982.31;;;2.13;100.00
3142;BME280;1581;51.568;6.998;2023-04-06T03:14:53;100979.25;;;2.08;100.00
3142;BME280;1581;51.568;6.998;2023-04-06T03:17:22;100986.16;;;2.09;100.00
3142;BME280;1581;51.568;6.998;2023-04-06T03:19:49;100986.97;;;2.10;100.00
3142;BME280;1581;51.568;6.998;2023-04-06T03:22:17;100984.00;;;2.14;100.00
3142;BME280;1581;51.568;6.998;2023-04-06T03:24:46;100982.72;;;2.09;100.00
3142;BME280;1581;51.568;6.998;2023-04-06T03:27:14;100979.38;;;2.07;100.00
3142;BME280;1581;51.568;6.998;2023-04-06T03:29:42;100975.66;;;2.09;100.00
3142;BME280;1581;51.568;6.998;2023-04-06T03:32:09;100977.47;;;2.09;100.00
3142;BME280;1581;51.568;6.998;2023-04-06T03:34:37;100975.09;;;2.06;100.00
3142;BME280;1581;51.568;6.998;2023-04-06T03:37:05;100973.41;;;2.05;100.00
3142;BME280;1581;51.568;6.998;2023-04-06T03:39:33;100981.44;;;2.03;100.00
3142;BME280;1581;51.568;6.998;2023-04-06T03:42:03;100977.63;;;1.96;100.00
3142;BME280;1581;51.568;6.998;2023-04-06T03:44:30;100974.91;;;1.98;100.00
3142;BME280;1581;51.568;6.998;2023-04-06T03:46:58;100975.00;;;1.96;100.00
3142;BME280;1581;51.568;6.998;2023-04-06T03:49:26;100979.81;;;1.91;100.00
3142;BME280;1581;51.568;6.998;2023-04-06T03:51:55;100974.56;;;1.91;100.00
3142;BME280;1581;51.568;6.998;2023-04-06T03:54:23;100979.69;;;1.93;100.00
3142;BME280;1581;51.568;6.998;2023-04-06T03:56:51;100981.50;;;1.92;100.00
3142;BME280;1581;51.568;6.998;2023-04-06T03:59:20;100981.75;;;1.89;100.00
3142;BME280;1581;51.568;6.998;2023-04-06T04:01:48;100976.75;;;1.86;100.00
3142;BME280;1581;51.568;6.998;2023-04-06T04:04:17;100977.19;;;1.91;100.00
3142;BME280;1581;51.568;6.998;2023-04-06T04:06:45;100983.66;;;1.87;100.00
3142;BME280;1581;51.568;6.998;2023-04-06T04:09:13;100978.53;;;1.86;100.00
3142;BME280;1581;51.568;6.998;2023-04-06T04:11:41;100984.19;;;1.81;100.00
3142;BME280;1581;51.568;6.998;2023-04-06T04:14:08;100989.53;;;1.80;100.00
3142;BME280;1581;51.568;6.998;2023-04-06T04:16:38;100986.22;;;1.78;100.00
3142;BME280;1581;51.568;6.998;2023-04-06T04:19:07;100986.34;;;1.76;100.00
3142;BME280;1581;51.568;6.998;2023-04-06T04:21:43;100978.03;;;1.71;100.00
3142;BME280;1581;51.568;6.998;2023-04-06T04:24:11;100984.28;;;1.80;100.00
3142;BME280;1581;51.568;6.998;2023-04-06T04:26:40;100976.78;;;1.75;100.00
3142;BME280;1581;51.568;6.998;2023-04-06T04:29:08;100985.53;;;1.76;100.00
3142;BME280;1581;51.568;6.998;2023-04-06T04:31:37;100981.81;;;1.78;100.00
3142;BME280;1581;51.568;6.998;2023-04-06T04:34:05;100970.84;;;1.73;100.00
3142;BME280;1581;51.568;6.998;2023-04-06T04:36:34;100978.97;;;1.70;100.00
3142;BME280;1581;51.568;6.998;2023-04-06T04:39:01;100971.09;;;1.70;100.00
3142;BME280;1581;51.568;6.998;2023-04-06T04:41:30;100973.72;;;1.70;100.00
3142;BME280;1581;51.568;6.998;2023-04-06T04:43:57;100977.16;;;1.71;100.00
3142;BME280;1581;51.568;6.998;2023-04-06T04:46:25;100972.31;;;1.67;100.00
3142;BME280;1581;51.568;6.998;2023-04-06T04:48:54;100978.41;;;1.67;100.00
3142;BME280;1581;51.568;6.998;2023-04-06T04:51:22;100973.97;;;1.67;100.00
3142;BME280;1581;51.568;6.998;2023-04-06T04:53:50;100969.94;;;1.64;100.00
3142;BME280;1581;51.568;6.998;2023-04-06T04:56:18;100965.91;;;1.60;100.00
3142;BME280;1581;51.568;6.998;2023-04-06T04:58:46;100972.59;;;1.64;100.00
3142;BME280;1581;51.568;6.998;2023-04-06T05:01:14;100960.97;;;1.66;100.00
3142;BME280;1581;51.568;6.998;2023-04-06T05:03:42;100974.25;;;1.65;100.00
3142;BME280;1581;51.568;6.998;2023-04-06T05:06:11;100968.72;;;1.67;100.00
3142;BME280;1581;51.568;6.998;2023-04-06T05:08:39;100969.44;;;1.69;100.00
3142;BME280;1581;51.568;6.998;2023-04-06T05:11:06;100964.56;;;1.65;100.00
3142;BME280;1581;51.568;6.998;2023-04-06T05:13:34;100966.09;;;1.67;100.00
3142;BME280;1581;51.568;6.998;2023-04-06T05:16:02;100972.38;;;1.76;100.00
3142;BME280;1581;51.568;6.998;2023-04-06T05:18:30;100971.53;;;1.75;100.00
3142;BME280;1581;51.568;6.998;2023-04-06T05:20:59;100966.38;;;1.85;100.00
3142;BME280;1581;51.568;6.998;2023-04-06T05:23:28;100969.13;;;1.83;100.00
3142;BME280;1581;51.568;6.998;2023-04-06T05:25:56;100975.22;;;1.84;100.00
3142;BME280;1581;51.568;6.998;2023-04-06T05:28:24;100970.28;;;1.90;100.00
3142;BME280;1581;51.568;6.998;2023-04-06T05:30:53;100967.66;;;1.90;100.00
3142;BME280;1581;51.568;6.998;2023-04-06T05:33:21;100968.78;;;1.97;100.00
3142;BME280;1581;51.568;6.998;2023-04-06T05:35:48;100971.19;;;2.00;100.00
3142;BME280;1581;51.568;6.998;2023-04-06T05:38:16;100972.28;;;1.98;100.00
3142;BME280;1581;51.568;6.998;2023-04-06T05:40:45;100974.13;;;2.07;100.00
3142;BME280;1581;51.568;6.998;2023-04-06T05:43:13;100971.09;;;2.11;100.00
3142;BME280;1581;51.568;6.998;2023-04-06T05:45:43;100970.84;;;2.14;100.00
3142;BME280;1581;51.568;6.998;2023-04-06T05:48:11;100974.09;;;2.27;100.00
3142;BME280;1581;51.568;6.998;2023-04-06T05:50:39;100970.81;;;2.35;100.00
3142;BME280;1581;51.568;6.998;2023-04-06T05:53:07;100972.34;;;2.37;100.00
3142;BME280;1581;51.568;6.998;2023-04-06T05:55:35;100972.41;;;2.47;100.00
3142;BME280;1581;51.568;6.998;2023-04-06T05:58:04;100970.91;;;2.53;100.00
3142;BME280;1581;51.568;6.998;2023-04-06T06:00:32;100976.88;;;2.65;100.00
3142;BME280;1581;51.568;6.998;2023-04-06T06:03:01;100975.41;;;2.72;100.00
3142;BME280;1581;51.568;6.998;2023-04-06T06:05:30;100975.00;;;2.76;100.00
3142;BME280;1581;51.568;6.998;2023-04-06T06:07:58;100970.72;;;2.85;100.00
3142;BME280;1581;51.568;6.998;2023-04-06T06:10:28;100966.19;;;2.96;100.00
3142;BME280;1581;51.568;6.998;2023-04-06T06:12:56;100964.28;;;3.08;100.00
3142;BME280;1581;51.568;6.998;2023-04-06T06:15:26;100963.59;;;3.15;100.00
3142;BME280;1581;51.568;6.998;2023-04-06T06:17:54;100965.84;;;3.29;100.00
3142;BME280;1581;51.568;6.998;2023-04-06T06:20:22;100967.50;;;3.39;100.00
3142;BME280;1581;51.568;6.998;2023-04-06T06:22:50;100974.16;;;3.53;100.00
3142;BME280;1581;51.568;6.998;2023-04-06T06:25:17;100967.38;;;3.69;100.00
3142;BME280;1581;51.568;6.998;2023-04-06T06:27:46;100961.38;;;3.86;100.00
3142;BME280;1581;51.568;6.998;2023-04-06T06:30:15;100963.19;;;4.05;100.00
3142;BME280;1581;51.568;6.998;2023-04-06T06:32:45;100966.63;;;4.24;100.00
3142;BME280;1581;51.568;6.998;2023-04-06T06:35:13;100968.38;;;4.33;100.00
3142;BME280;1581;51.568;6.998;2023-04-06T06:37:41;100969.31;;;4.41;100.00
3142;BME280;1581;51.568;6.998;2023-04-06T06:40:10;100970.34;;;4.67;100.00
3142;BME280;1581;51.568;6.998;2023-04-06T06:42:39;100971.22;;;4.85;100.00
3142;BME280;1581;51.568;6.998;2023-04-06T06:45:09;100974.53;;;5.14;100.00
3142;BME280;1581;51.568;6.998;2023-04-06T06:47:37;100964.56;;;5.25;100.00
3142;BME280;1581;51.568;6.998;2023-04-06T06:50:07;100968.63;;;5.47;99.25
3142;BME280;1581;51.568;6.998;2023-04-06T06:52:38;100969.22;;;5.58;98.14
3142;BME280;1581;51.568;6.998;2023-04-06T06:55:09;100967.84;;;5.72;96.71
3142;BME280;1581;51.568;6.998;2023-04-06T06:57:40;100968.69;;;5.90;93.97
3142;BME280;1581;51.568;6.998;2023-04-06T07:00:18;100967.03;;;6.14;90.72
3142;BME280;1581;51.568;6.998;2023-04-06T07:02:51;100974.84;;;6.15;90.72
3142;BME280;1581;51.568;6.998;2023-04-06T07:05:26;100972.56;;;6.20;89.70
3142;BME280;1581;51.568;6.998;2023-04-06T07:07:55;100972.03;;;6.42;88.40
3142;BME280;1581;51.568;6.998;2023-04-06T07:10:23;100975.25;;;6.54;87.32
3142;BME280;1581;51.568;6.998;2023-04-06T07:12:52;100973.34;;;6.64;86.23
3142;BME280;1581;51.568;6.998;2023-04-06T07:15:19;100976.44;;;6.59;83.83
3142;BME280;1581;51.568;6.998;2023-04-06T07:17:47;100971.09;;;6.84;83.11
3142;BME280;1581;51.568;6.998;2023-04-06T07:20:15;100962.84;;;6.95;82.83
3142;BME280;1581;51.568;6.998;2023-04-06T07:22:45;100960.28;;;7.11;82.67
3142;BME280;1581;51.568;6.998;2023-04-06T07:25:14;100959.13;;;7.22;81.82
3142;BME280;1581;51.568;6.998;2023-04-06T07:27:42;100959.16;;;7.30;80.28
3142;BME280;1581;51.568;6.998;2023-04-06T07:30:11;100958.22;;;7.47;80.49
3142;BME280;1581;51.568;6.998;2023-04-06T07:32:38;100969.50;;;7.57;77.38
3142;BME280;1581;51.568;6.998;2023-04-06T07:35:07;100965.69;;;7.75;75.41
3142;BME280;1581;51.568;6.998;2023-04-06T07:37:35;100963.03;;;7.91;74.50
3142;BME280;1581;51.568;6.998;2023-04-06T07:40:05;100965.34;;;8.10;74.24
3142;BME280;1581;51.568;6.998;2023-04-06T07:42:34;100969.34;;;8.30;72.71
3142;BME280;1581;51.568;6.998;2023-04-06T07:45:02;100959.97;;;8.57;66.97
3142;BME280;1581;51.568;6.998;2023-04-06T07:47:31;100953.16;;;8.63;67.38
3142;BME280;1581;51.568;6.998;2023-04-06T07:49:59;100957.44;;;8.72;65.09
3142;BME280;1581;51.568;6.998;2023-04-06T07:52:27;100957.78;;;9.07;65.45
3142;BME280;1581;51.568;6.998;2023-04-06T07:54:55;100947.19;;;9.30;64.03
3142;BME280;1581;51.568;6.998;2023-04-06T07:57:25;100949.44;;;9.40;62.22
3142;BME280;1581;51.568;6.998;2023-04-06T07:59:53;100948.16;;;9.81;61.69
3142;BME280;1581;51.568;6.998;2023-04-06T08:02:25;100953.63;;;10.25;60.12
3142;BME280;1581;51.568;6.998;2023-04-06T08:04:54;100955.50;;;10.53;56.75
3142;BME280;1581;51.568;6.998;2023-04-06T08:07:22;100960.09;;;10.59;54.46
3142;BME280;1581;51.568;6.998;2023-04-06T08:09:51;100955.13;;;10.99;53.75
3142;BME280;1581;51.568;6.998;2023-04-06T08:12:19;100949.00;;;11.19;52.24
3142;BME280;1581;51.568;6.998;2023-04-06T08:14:48;100946.44;;;11.47;52.26
3142;BME280;1581;51.568;6.998;2023-04-06T08:17:16;100939.25;;;11.26;50.88
3142;BME280;1581;51.568;6.998;2023-04-06T08:19:48;100948.09;;;11.48;51.32
3142;BME280;1581;51.568;6.998;2023-04-06T08:22:16;100944.53;;;11.76;50.28
3142;BME280;1581;51.568;6.998;2023-04-06T08:24:44;100952.06;;;11.94;50.45
3142;BME280;1581;51.568;6.998;2023-04-06T08:27:12;100946.09;;;12.12;48.50
3142;BME280;1581;51.568;6.998;2023-04-06T08:29:41;100948.41;;;12.22;48.03
3142;BME280;1581;51.568;6.998;2023-04-06T08:32:10;100942.75;;;12.31;46.77
3142;BME280;1581;51.568;6.998;2023-04-06T08:34:38;100943.44;;;12.46;46.66
3142;BME280;1581;51.568;6.998;2023-04-06T08:37:06;100948.25;;;12.57;46.20
3142;BME280;1581;51.568;6.998;2023-04-06T08:39:35;100946.66;;;12.63;46.11
3142;BME280;1581;51.568;6.998;2023-04-06T08:42:03;100947.19;;;12.52;44.96
3142;BME280;1581;51.568;6.998;2023-04-06T08:44:32;100946.38;;;12.51;45.24
3142;BME280;1581;51.568;6.998;2023-04-06T08:47:01;100938.84;;;12.61;45.42
3142;BME280;1581;51.568;6.998;2023-04-06T08:49:31;100942.16;;;12.70;45.22
3142;BME280;1581;51.568;6.998;2023-04-06T08:52:00;100937.06;;;12.75;45.65
3142;BME280;1581;51.568;6.998;2023-04-06T08:54:28;100942.44;;;12.81;45.26
3142;BME280;1581;51.568;6.998;2023-04-06T08:56:56;100939.78;;;11.99;43.71
3142;BME280;1581;51.568;6.998;2023-04-06T08:59:25;100941.16;;;12.43;44.90
3142;BME280;1581;51.568;6.998;2023-04-06T09:01:55;100938.53;;;12.50;44.55
3142;BME280;1581;51.568;6.998;2023-04-06T09:04:23;100931.88;;;12.67;45.01
3142;BME280;1581;51.568;6.998;2023-04-06T09:06:52;100931.88;;;12.73;44.26
3142;BME280;1581;51.568;6.998;2023-04-06T09:09:20;100934.69;;;12.92;43.51
3142;BME280;1581;51.568;6.998;2023-04-06T09:11:52;100933.72;;;13.00;43.98
3142;BME280;1581;51.568;6.998;2023-04-06T09:14:34;100940.66;;;12.61;41.29
3142;BME280;1581;51.568;6.998;2023-04-06T09:17:05;100936.00;;;12.69;41.38
3142;BME280;1581;51.568;6.998;2023-04-06T09:19:33;100931.44;;;12.97;41.90
3142;BME280;1581;51.568;6.998;2023-04-06T09:22:06;100928.84;;;13.23;41.14
3142;BME280;1581;51.568;6.998;2023-04-06T09:24:42;100936.34;;;13.53;40.79
3142;BME280;1581;51.568;6.998;2023-04-06T09:27:10;100922.78;;;13.68;40.69
3142;BME280;1581;51.568;6.998;2023-04-06T09:29:51;100934.34;;;13.87;41.36
3142;BME280;1581;51.568;6.998;2023-04-06T09:32:43;100929.91;;;13.22;38.48
3142;BME280;1581;51.568;6.998;2023-04-06T09:35:12;100931.81;;;13.41;40.10
3142;BME280;1581;51.568;6.998;2023-04-06T09:37:42;100924.66;;;13.80;38.92
3142;BME280;1581;51.568;6.998;2023-04-06T09:40:11;100926.09;;;14.08;39.22
3142;BME280;1581;51.568;6.998;2023-04-06T09:42:41;100927.34;;;14.51;39.17
3142;BME280;1581;51.568;6.998;2023-04-06T09:45:10;100922.09;;;14.82;39.28
3142;BME280;1581;51.568;6.998;2023-04-06T09:47:39;100923.47;;;14.15;36.67
3142;BME280;1581;51.568;6.998;2023-04-06T09:50:09;100920.53;;;14.10;37.37
3142;BME280;1581;51.568;6.998;2023-04-06T09:52:42;100924.91;;;14.17;36.95
3142;BME280;1581;51.568;6.998;2023-04-06T09:55:22;100912.41;;;14.81;36.99
3142;BME280;1581;51.568;6.998;2023-04-06T09:58:00;100914.69;;;15.34;36.77
3142;BME280;1581;51.568;6.998;2023-04-06T10:00:34;100907.53;;;15.09;36.22
3142;BME280;1581;51.568;6.998;2023-04-06T10:03:14;100905.44;;;15.54;36.41
3142;BME280;1581;51.568;6.998;2023-04-06T10:05:50;100909.44;;;15.76;36.35
3142;BME280;1581;51.568;6.998;2023-04-06T10:08:25;100905.75;;;16.20;36.41
3142;BME280;1581;51.568;6.998;2023-04-06T10:10:55;100906.25;;;15.61;35.63
3142;BME280;1581;51.568;6.998;2023-04-06T10:13:24;100914.72;;;15.15;36.78
3142;BME280;1581;51.568;6.998;2023-04-06T10:15:52;100912.81;;;14.78;36.71
3142;BME280;1581;51.568;6.998;2023-04-06T10:18:21;100912.50;;;14.03;37.14
3142;BME280;1581;51.568;6.998;2023-04-06T10:20:53;100908.66;;;14.88;37.19
3142;BME280;1581;51.568;6.998;2023-04-06T10:23:31;100912.50;;;15.12;37.43
3142;BME280;1581;51.568;6.998;2023-04-06T10:26:02;100912.19;;;14.82;36.11
3142;BME280;1581;51.568;6.998;2023-04-06T10:28:33;100899.25;;;15.54;36.60
3142;BME280;1581;51.568;6.998;2023-04-06T10:31:05;100906.41;;;15.36;36.67
3142;BME280;1581;51.568;6.998;2023-04-06T10:33:34;100900.03;;;15.61;36.42
3142;BME280;1581;51.568;6.998;2023-04-06T10:36:11;100899.56;;;15.70;36.18
3142;BME280;1581;51.568;6.998;2023-04-06T10:38:41;100901.50;;;16.37;36.18
3142;BME280;1581;51.568;6.998;2023-04-06T10:41:11;100903.75;;;15.60;35.87
3142;BME280;1581;51.568;6.998;2023-04-06T10:43:41;100909.91;;;14.86;36.29
3142;BME280;1581;51.568;6.998;2023-04-06T10:46:09;100909.09;;;16.15;36.44
3142;BME280;1581;51.568;6.998;2023-04-06T10:48:39;100898.78;;;16.79;35.62
3142;BME280;1581;51.568;6.998;2023-04-06T10:51:12;100903.97;;;17.10;35.07
3142;BME280;1581;51.568;6.998;2023-04-06T10:53:43;100899.16;;;16.64;34.27
3142;BME280;1581;51.568;6.998;2023-04-06T10:56:18;100892.66;;;15.81;34.64
3142;BME280;1581;51.568;6.998;2023-04-06T10:58:49;100888.50;;;16.09;35.13
3142;BME280;1581;51.568;6.998;2023-04-06T11:01:19;100891.72;;;16.18;34.63
3142;BME280;1581;51.568;6.998;2023-04-06T11:03:49;100888.22;;;16.59;34.11
3142;BME280;1581;51.568;6.998;2023-04-06T11:06:21;100876.25;;;17.38;33.62
3142;BME280;1581;51.568;6.998;2023-04-06T11:08:52;100877.25;;;17.55;33.44
3142;BME280;1581;51.568;6.998;2023-04-06T11:11:23;100889.28;;;17.23;33.91
3142;BME280;1581;51.568;6.998;2023-04-06T11:13:54;100891.47;;;17.15;33.86
3142;BME280;1581;51.568;6.998;2023-04-06T11:16:23;100886.97;;;17.09;34.51
3142;BME280;1581;51.568;6.998;2023-04-06T11:18:54;100876.00;;;17.11;34.10
3142;BME280;1581;51.568;6.998;2023-04-06T11:21:34;100883.94;;;16.52;35.72
3142;BME280;1581;51.568;6.998;2023-04-06T11:24:24;100888.94;;;15.82;34.75
3142;BME280;1581;51.568;6.998;2023-04-06T11:26:55;100889.06;;;17.07;34.54
3142;BME280;1581;51.568;6.998;2023-04-06T11:29:25;100882.59;;;17.85;33.94
3142;BME280;1581;51.568;6.998;2023-04-06T11:31:58;100886.25;;;18.13;33.94
3142;BME280;1581;51.568;6.998;2023-04-06T11:34:30;100880.38;;;17.41;33.32
3142;BME280;1581;51.568;6.998;2023-04-06T11:37:00;100885.69;;;18.34;33.43
3142;BME280;1581;51.568;6.998;2023-04-06T11:39:42;100880.09;;;17.72;32.89
3142;BME280;1581;51.568;6.998;2023-04-06T11:42:12;100884.69;;;17.71;33.32
3142;BME280;1581;51.568;6.998;2023-04-06T11:44:43;100875.91;;;17.99;33.57
3142;BME280;1581;51.568;6.998;2023-04-06T11:47:12;100867.03;;;17.46;34.36
3142;BME280;1581;51.568;6.998;2023-04-06T11:49:42;100874.19;;;18.61;33.46
3142;BME280;1581;51.568;6.998;2023-04-06T11:52:20;100871.09;;;18.69;32.61
3142;BME280;1581;51.568;6.998;2023-04-06T11:54:51;100867.91;;;17.28;33.98
3142;BME280;1581;51.568;6.998;2023-04-06T11:57:21;100866.63;;;17.72;33.46
3142;BME280;1581;51.568;6.998;2023-04-06T11:59:50;100879.59;;;18.50;33.58
3142;BME280;1581;51.568;6.998;2023-04-06T12:02:19;100871.44;;;18.73;33.34
3142;BME280;1581;51.568;6.998;2023-04-06T12:04:49;100871.22;;;18.74;33.30
3142;BME280;1581;51.568;6.998;2023-04-06T12:07:17;100880.63;;;18.60;32.96
3142;BME280;1581;51.568;6.998;2023-04-06T12:09:46;100879.44;;;18.11;33.28
3142;BME280;1581;51.568;6.998;2023-04-06T12:12:16;100868.19;;;17.21;34.32
3142;BME280;1581;51.568;6.998;2023-04-06T12:14:50;100872.53;;;16.74;34.99
3142;BME280;1581;51.568;6.998;2023-04-06T12:17:19;100872.31;;;16.40;35.84
3142;BME280;1581;51.568;6.998;2023-04-06T12:19:47;100874.75;;;16.59;35.59
3142;BME280;1581;51.568;6.998;2023-04-06T12:22:16;100866.59;;;17.02;35.36
3142;BME280;1581;51.568;6.998;2023-04-06T12:24:43;100863.19;;;16.59;36.03
3142;BME280;1581;51.568;6.998;2023-04-06T12:27:11;100867.78;;;17.06;36.41
3142;BME280;1581;51.568;6.998;2023-04-06T12:29:43;100870.78;;;16.44;35.89
3142;BME280;1581;51.568;6.998;2023-04-06T12:32:12;100867.72;;;17.23;35.30
3142;BME280;1581;51.568;6.998;2023-04-06T12:34:40;100866.06;;;17.23;35.46
3142;BME280;1581;51.568;6.998;2023-04-06T12:37:08;100866.44;;;16.43;37.35
3142;BME280;1581;51.568;6.998;2023-04-06T12:39:38;100861.31;;;16.59;37.11
3142;BME280;1581;51.568;6.998;2023-04-06T12:42:06;100869.31;;;16.24;38.02
3142;BME280;1581;51.568;6.998;2023-04-06T12:44:35;100869.28;;;15.57;38.75
3142;BME280;1581;51.568;6.998;2023-04-06T12:47:04;100868.44;;;15.26;39.12
3142;BME280;1581;51.568;6.998;2023-04-06T12:49:33;100865.06;;;14.93;40.72
3142;BME280;1581;51.568;6.998;2023-04-06T12:52:03;100866.03;;;15.05;40.73
3142;BME280;1581;51.568;6.998;2023-04-06T12:54:30;100864.47;;;14.91;41.79
3142;BME280;1581;51.568;6.998;2023-04-06T12:56:58;100865.75;;;14.82;41.66
3142;BME280;1581;51.568;6.998;2023-04-06T12:59:27;100858.22;;;15.03;42.38
3142;BME280;1581;51.568;6.998;2023-04-06T13:02:09;100867.53;;;14.38;43.15
3142;BME280;1581;51.568;6.998;2023-04-06T13:04:39;100864.41;;;14.54;43.17
3142;BME280;1581;51.568;6.998;2023-04-06T13:07:08;100868.78;;;14.29;43.91
3142;BME280;1581;51.568;6.998;2023-04-06T13:09:36;100861.59;;;14.86;42.85
3142;BME280;1581;51.568;6.998;2023-04-06T13:12:05;100863.63;;;14.97;41.46
3142;BME280;1581;51.568;6.998;2023-04-06T13:14:34;100860.16;;;14.20;42.87
3142;BME280;1581;51.568;6.998;2023-04-06T13:17:04;100860.97;;;14.08;41.95
3142;BME280;1581;51.568;6.998;2023-04-06T13:19:34;100859.00;;;14.66;42.14
3142;BME280;1581;51.568;6.998;2023-04-06T13:22:02;100857.75;;;14.75;41.70
3142;BME280;1581;51.568;6.998;2023-04-06T13:24:30;100858.50;;;14.89;41.85